Terminal Aerodrome Forecast
Issued by NWS Wilmington, OH

Current Version | Previous Version | Graphics & Text | Print | Product List | Glossary On
Versions: 1 2 3 4 5 6 7 8 9 10 11 12 13 14 15 16 17 18 19 20 21
000
FTUS41 KILN 151143
TAFILN
TAF
KILN 151143Z 1512/1612 17010KT 2SM -SN OVC025
     FM151300 18011KT P6SM SCT025 OVC035
     FM151500 20012G22KT 3SM -SN OVC025
     FM151700 21012G22KT 1SM -SN OVC015
     FM152100 23011G19KT 3SM -SN OVC025
     FM160400 26010G18KT P6SM -SN OVC012
     FM160900 26008KT P6SM SCT015 OVC150=

USA.gov is the U.S. government's official web portal to all federal, state and local government web resources and services.